sensor_id;sensor_type;location;lat;lon;timestamp;pressure;altitude;pressure_sealevel;temperature;humidity
62164;BME280;48149;51.132;7.178;2023-09-07T00:01:21;99100.97;;;43.31;22.75
62164;BME280;48149;51.132;7.178;2023-09-07T00:03:47;99102.53;;;44.34;21.62
62164;BME280;48149;51.132;7.178;2023-09-07T00:06:12;99098.84;;;43.62;22.46
62164;BME280;48149;51.132;7.178;2023-09-07T00:08:37;99098.66;;;42.22;23.36
62164;BME280;48149;51.132;7.178;2023-09-07T00:11:05;99098.31;;;43.47;22.37
62164;BME280;48149;51.132;7.178;2023-09-07T00:13:31;99103.09;;;43.66;22.47
62164;BME280;48149;51.132;7.178;2023-09-07T00:16:00;99098.66;;;41.88;23.75
62164;BME280;48149;51.132;7.178;2023-09-07T00:18:28;99097.38;;;44.36;21.60
62164;BME280;48149;51.132;7.178;2023-09-07T00:20:53;99091.97;;;43.27;22.54
62164;BME280;48149;51.132;7.178;2023-09-07T00:23:19;99082.88;;;41.92;23.15
62164;BME280;48149;51.132;7.178;2023-09-07T00:25:47;99098.16;;;42.84;22.83
62164;BME280;48149;51.132;7.178;2023-09-07T00:28:18;99094.06;;;42.69;23.13
62164;BME280;48149;51.132;7.178;2023-09-07T00:30:44;99106.47;;;41.90;23.97
62164;BME280;48149;51.132;7.178;2023-09-07T00:33:09;99101.00;;;42.77;23.26
62164;BME280;48149;51.132;7.178;2023-09-07T00:35:34;99094.34;;;43.25;22.36
62164;BME280;48149;51.132;7.178;2023-09-07T00:38:00;99104.34;;;42.65;23.25
62164;BME280;48149;51.132;7.178;2023-09-07T00:40:25;99092.34;;;42.52;23.06
62164;BME280;48149;51.132;7.178;2023-09-07T00:42:51;99091.38;;;43.82;22.12
62164;BME280;48149;51.132;7.178;2023-09-07T00:45:16;99098.69;;;43.26;22.54
62164;BME280;48149;51.132;7.178;2023-09-07T00:47:41;99095.72;;;44.58;21.59
62164;BME280;48149;51.132;7.178;2023-09-07T00:50:07;99096.81;;;42.96;22.63
62164;BME280;48149;51.132;7.178;2023-09-07T00:52:32;99090.56;;;42.92;22.45
62164;BME280;48149;51.132;7.178;2023-09-07T00:54:58;99099.22;;;43.17;22.65
62164;BME280;48149;51.132;7.178;2023-09-07T00:57:23;99096.41;;;42.10;23.42
62164;BME280;48149;51.132;7.178;2023-09-07T00:59:49;99093.50;;;43.08;22.67
62164;BME280;48149;51.132;7.178;2023-09-07T01:02:14;99094.13;;;43.16;22.39
62164;BME280;48149;51.132;7.178;2023-09-07T01:04:39;99090.00;;;43.50;22.08
62164;BME280;48149;51.132;7.178;2023-09-07T01:09:32;99085.16;;;43.97;21.87
62164;BME280;48149;51.132;7.178;2023-09-07T01:11:59;99081.50;;;43.84;22.05
62164;BME280;48149;51.132;7.178;2023-09-07T01:14:25;99081.13;;;44.22;21.79
62164;BME280;48149;51.132;7.178;2023-09-07T01:16:50;99076.25;;;44.10;21.67
62164;BME280;48149;51.132;7.178;2023-09-07T01:19:15;99069.94;;;44.45;21.82
62164;BME280;48149;51.132;7.178;2023-09-07T01:21:41;99064.66;;;43.36;22.11
62164;BME280;48149;51.132;7.178;2023-09-07T01:24:07;99077.09;;;45.55;20.79
62164;BME280;48149;51.132;7.178;2023-09-07T01:26:33;99076.66;;;44.28;21.91
62164;BME280;48149;51.132;7.178;2023-09-07T01:29:00;99062.69;;;44.35;21.28
62164;BME280;48149;51.132;7.178;2023-09-07T01:31:25;99065.19;;;43.70;22.39
62164;BME280;48149;51.132;7.178;2023-09-07T01:33:50;99065.53;;;44.99;20.88
62164;BME280;48149;51.132;7.178;2023-09-07T01:36:15;99061.91;;;42.89;22.60
62164;BME280;48149;51.132;7.178;2023-09-07T01:38:41;99060.66;;;43.60;21.74
62164;BME280;48149;51.132;7.178;2023-09-07T01:41:06;99069.47;;;42.82;23.00
62164;BME280;48149;51.132;7.178;2023-09-07T01:43:31;99064.97;;;44.00;21.54
62164;BME280;48149;51.132;7.178;2023-09-07T01:45:56;99060.66;;;45.20;20.76
62164;BME280;48149;51.132;7.178;2023-09-07T01:48:21;99069.81;;;42.00;23.10
62164;BME280;48149;51.132;7.178;2023-09-07T01:50:47;99063.00;;;44.01;21.76
62164;BME280;48149;51.132;7.178;2023-09-07T01:53:12;99066.81;;;44.95;21.00
62164;BME280;48149;51.132;7.178;2023-09-07T01:55:37;99061.00;;;44.89;20.60
62164;BME280;48149;51.132;7.178;2023-09-07T01:58:02;99067.97;;;43.04;22.35
62164;BME280;48149;51.132;7.178;2023-09-07T02:00:27;99067.00;;;43.80;21.63
62164;BME280;48149;51.132;7.178;2023-09-07T02:02:54;99066.63;;;44.70;20.75
62164;BME280;48149;51.132;7.178;2023-09-07T02:05:19;99066.88;;;43.64;21.85
62164;BME280;48149;51.132;7.178;2023-09-07T02:07:46;99055.31;;;43.30;22.10
62164;BME280;48149;51.132;7.178;2023-09-07T02:10:14;99062.91;;;44.76;20.81
62164;BME280;48149;51.132;7.178;2023-09-07T02:12:40;99059.16;;;43.75;21.91
62164;BME280;48149;51.132;7.178;2023-09-07T02:15:05;99060.63;;;43.83;21.47
62164;BME280;48149;51.132;7.178;2023-09-07T02:17:31;99061.84;;;44.54;20.91
62164;BME280;48149;51.132;7.178;2023-09-07T02:19:57;99062.50;;;44.26;20.95
62164;BME280;48149;51.132;7.178;2023-09-07T02:22:22;99061.75;;;44.05;21.34
62164;BME280;48149;51.132;7.178;2023-09-07T02:24:49;99057.94;;;44.35;21.43
62164;BME280;48149;51.132;7.178;2023-09-07T02:27:14;99061.38;;;42.71;22.21
62164;BME280;48149;51.132;7.178;2023-09-07T02:29:40;99063.53;;;44.16;21.21
62164;BME280;48149;51.132;7.178;2023-09-07T02:32:05;99053.22;;;43.37;21.28
62164;BME280;48149;51.132;7.178;2023-09-07T02:34:31;99059.31;;;41.91;22.79
62164;BME280;48149;51.132;7.178;2023-09-07T02:36:56;99059.00;;;42.73;22.30
62164;BME280;48149;51.132;7.178;2023-09-07T02:39:22;99055.28;;;41.99;22.64
62164;BME280;48149;51.132;7.178;2023-09-07T02:41:51;99057.75;;;41.12;23.43
62164;BME280;48149;51.132;7.178;2023-09-07T02:44:16;99065.09;;;42.31;22.19
62164;BME280;48149;51.132;7.178;2023-09-07T02:46:41;99057.00;;;43.86;21.38
62164;BME280;48149;51.132;7.178;2023-09-07T02:49:06;99057.19;;;41.31;23.19
62164;BME280;48149;51.132;7.178;2023-09-07T02:51:31;99058.31;;;42.66;22.67
62164;BME280;48149;51.132;7.178;2023-09-07T02:53:57;99061.06;;;42.39;22.63
62164;BME280;48149;51.132;7.178;2023-09-07T02:56:22;99053.59;;;44.70;20.87
62164;BME280;48149;51.132;7.178;2023-09-07T02:58:48;99062.66;;;44.19;21.40
62164;BME280;48149;51.132;7.178;2023-09-07T03:01:13;99051.56;;;44.38;21.17
62164;BME280;48149;51.132;7.178;2023-09-07T03:03:38;99061.13;;;42.35;22.36
62164;BME280;48149;51.132;7.178;2023-09-07T03:06:09;99055.97;;;43.80;21.33
62164;BME280;48149;51.132;7.178;2023-09-07T03:08:35;99048.97;;;41.69;22.84
62164;BME280;48149;51.132;7.178;2023-09-07T03:11:04;99047.69;;;40.91;23.42
62164;BME280;48149;51.132;7.178;2023-09-07T03:13:29;99058.19;;;44.25;21.17
62164;BME280;48149;51.132;7.178;2023-09-07T03:15:55;99044.75;;;43.68;20.99
62164;BME280;48149;51.132;7.178;2023-09-07T03:18:20;99053.13;;;42.94;21.98
62164;BME280;48149;51.132;7.178;2023-09-07T03:20:46;99056.84;;;42.61;22.22
62164;BME280;48149;51.132;7.178;2023-09-07T03:23:12;99053.72;;;41.98;22.82
62164;BME280;48149;51.132;7.178;2023-09-07T03:25:38;99052.59;;;43.69;21.46
62164;BME280;48149;51.132;7.178;2023-09-07T03:28:03;99053.16;;;41.43;23.26
62164;BME280;48149;51.132;7.178;2023-09-07T03:30:29;99051.94;;;42.15;22.83
62164;BME280;48149;51.132;7.178;2023-09-07T03:32:54;99052.59;;;42.53;22.23
62164;BME280;48149;51.132;7.178;2023-09-07T03:35:19;99047.28;;;43.39;21.98
62164;BME280;48149;51.132;7.178;2023-09-07T03:37:45;99043.66;;;41.88;23.29
62164;BME280;48149;51.132;7.178;2023-09-07T03:40:10;99043.50;;;41.65;22.91
62164;BME280;48149;51.132;7.178;2023-09-07T03:42:35;99041.41;;;43.37;21.60
62164;BME280;48149;51.132;7.178;2023-09-07T03:45:01;99047.28;;;43.16;21.55
62164;BME280;48149;51.132;7.178;2023-09-07T03:47:26;99044.94;;;40.40;24.00
62164;BME280;48149;51.132;7.178;2023-09-07T03:49:54;99047.78;;;43.53;21.83
62164;BME280;48149;51.132;7.178;2023-09-07T03:52:19;99052.28;;;43.44;21.20
62164;BME280;48149;51.132;7.178;2023-09-07T03:54:47;99050.78;;;44.02;21.15
62164;BME280;48149;51.132;7.178;2023-09-07T03:57:12;99043.50;;;43.29;21.88
62164;BME280;48149;51.132;7.178;2023-09-07T03:59:37;99056.59;;;42.75;21.85
62164;BME280;48149;51.132;7.178;2023-09-07T04:02:03;99044.84;;;42.71;22.11
62164;BME280;48149;51.132;7.178;2023-09-07T04:04:28;99049.59;;;41.83;23.07
62164;BME280;48149;51.132;7.178;2023-09-07T04:06:53;99057.34;;;41.92;22.67
62164;BME280;48149;51.132;7.178;2023-09-07T04:09:18;99047.50;;;43.05;21.83
62164;BME280;48149;51.132;7.178;2023-09-07T04:11:43;99050.97;;;41.65;22.72
62164;BME280;48149;51.132;7.178;2023-09-07T04:14:08;99054.31;;;43.83;21.29
62164;BME280;48149;51.132;7.178;2023-09-07T04:16:34;99046.63;;;44.10;21.18
62164;BME280;48149;51.132;7.178;2023-09-07T04:18:59;99060.78;;;42.60;22.34
62164;BME280;48149;51.132;7.178;2023-09-07T04:21:24;99047.88;;;43.03;21.98
62164;BME280;48149;51.132;7.178;2023-09-07T04:23:49;99054.88;;;42.85;21.94
62164;BME280;48149;51.132;7.178;2023-09-07T04:26:14;99054.72;;;42.95;21.96
62164;BME280;48149;51.132;7.178;2023-09-07T04:28:40;99058.16;;;42.23;22.61
62164;BME280;48149;51.132;7.178;2023-09-07T04:31:05;99049.09;;;43.02;22.01
62164;BME280;48149;51.132;7.178;2023-09-07T04:33:31;99054.38;;;42.10;22.65
62164;BME280;48149;51.132;7.178;2023-09-07T04:35:56;99057.63;;;41.26;23.40
62164;BME280;48149;51.132;7.178;2023-09-07T04:38:21;99055.53;;;42.42;22.71
62164;BME280;48149;51.132;7.178;2023-09-07T04:40:47;99050.78;;;43.82;21.37
62164;BME280;48149;51.132;7.178;2023-09-07T04:43:12;99051.81;;;42.79;22.36
62164;BME280;48149;51.132;7.178;2023-09-07T04:45:45;99056.72;;;43.18;21.93
62164;BME280;48149;51.132;7.178;2023-09-07T04:48:10;99056.50;;;42.29;22.71
62164;BME280;48149;51.132;7.178;2023-09-07T04:50:36;99061.59;;;41.22;23.41
62164;BME280;48149;51.132;7.178;2023-09-07T04:53:02;99055.34;;;41.59;23.04
62164;BME280;48149;51.132;7.178;2023-09-07T04:55:27;99058.19;;;42.19;22.69
62164;BME280;48149;51.132;7.178;2023-09-07T04:57:52;99064.19;;;41.77;23.46
62164;BME280;48149;51.132;7.178;2023-09-07T05:00:17;99062.09;;;41.54;23.55
62164;BME280;48149;51.132;7.178;2023-09-07T05:02:43;99059.41;;;42.72;22.33
62164;BME280;48149;51.132;7.178;2023-09-07T05:05:08;99067.06;;;43.11;22.03
62164;BME280;48149;51.132;7.178;2023-09-07T05:07:33;99056.91;;;41.60;23.54
62164;BME280;48149;51.132;7.178;2023-09-07T05:09:59;99062.09;;;44.43;20.81
62164;BME280;48149;51.132;7.178;2023-09-07T05:12:24;99064.44;;;42.50;22.14
62164;BME280;48149;51.132;7.178;2023-09-07T05:14:49;99067.72;;;42.68;21.97
62164;BME280;48149;51.132;7.178;2023-09-07T05:17:14;99065.22;;;42.77;22.15
62164;BME280;48149;51.132;7.178;2023-09-07T05:19:40;99061.25;;;42.25;22.27
62164;BME280;48149;51.132;7.178;2023-09-07T05:22:05;99061.16;;;42.85;22.28
62164;BME280;48149;51.132;7.178;2023-09-07T05:24:30;99056.50;;;43.29;21.78
62164;BME280;48149;51.132;7.178;2023-09-07T05:26:55;99061.91;;;42.63;22.40
62164;BME280;48149;51.132;7.178;2023-09-07T05:29:21;99077.41;;;43.03;22.21
62164;BME280;48149;51.132;7.178;2023-09-07T05:31:47;99073.75;;;43.33;22.05
62164;BME280;48149;51.132;7.178;2023-09-07T05:34:12;99079.63;;;43.97;21.33
62164;BME280;48149;51.132;7.178;2023-09-07T05:36:38;99078.69;;;42.11;23.05
62164;BME280;48149;51.132;7.178;2023-09-07T05:39:03;99074.59;;;43.30;22.24
62164;BME280;48149;51.132;7.178;2023-09-07T05:41:29;99077.63;;;43.59;21.98
62164;BME280;48149;51.132;7.178;2023-09-07T05:43:54;99083.31;;;44.98;20.65
62164;BME280;48149;51.132;7.178;2023-09-07T05:46:19;99082.94;;;43.03;22.55
62164;BME280;48149;51.132;7.178;2023-09-07T05:48:45;99081.25;;;44.34;21.42
62164;BME280;48149;51.132;7.178;2023-09-07T05:51:10;99085.16;;;43.97;21.62
62164;BME280;48149;51.132;7.178;2023-09-07T05:53:35;99086.75;;;43.55;22.11
62164;BME280;48149;51.132;7.178;2023-09-07T05:56:00;99085.59;;;42.30;23.17
62164;BME280;48149;51.132;7.178;2023-09-07T05:58:25;99087.13;;;41.22;23.96
62164;BME280;48149;51.132;7.178;2023-09-07T06:00:51;99085.69;;;43.03;22.70
62164;BME280;48149;51.132;7.178;2023-09-07T06:03:16;99079.06;;;42.97;22.81
62164;BME280;48149;51.132;7.178;2023-09-07T06:05:41;99075.25;;;42.37;23.23
62164;BME280;48149;51.132;7.178;2023-09-07T06:08:06;99088.34;;;42.30;23.56
62164;BME280;48149;51.132;7.178;2023-09-07T06:10:32;99080.59;;;43.01;23.01
62164;BME280;48149;51.132;7.178;2023-09-07T06:12:58;99082.78;;;41.21;24.20
62164;BME280;48149;51.132;7.178;2023-09-07T06:15:23;99080.75;;;43.61;22.64
62164;BME280;48149;51.132;7.178;2023-09-07T06:17:48;99090.66;;;41.19;24.90
62164;BME280;48149;51.132;7.178;2023-09-07T06:20:14;99088.25;;;43.37;23.12
62164;BME280;48149;51.132;7.178;2023-09-07T06:22:40;99086.31;;;39.66;26.20
62164;BME280;48149;51.132;7.178;2023-09-07T06:25:05;99094.63;;;41.96;24.12
62164;BME280;48149;51.132;7.178;2023-09-07T06:27:30;99103.53;;;42.68;23.48
62164;BME280;48149;51.132;7.178;2023-09-07T06:29:55;99098.84;;;42.92;23.50
62164;BME280;48149;51.132;7.178;2023-09-07T06:32:21;99096.00;;;43.45;23.33
62164;BME280;48149;51.132;7.178;2023-09-07T06:34:46;99102.44;;;44.73;21.99
62164;BME280;48149;51.132;7.178;2023-09-07T06:37:12;99106.25;;;43.45;22.99
62164;BME280;48149;51.132;7.178;2023-09-07T06:39:37;99107.06;;;43.19;23.40
62164;BME280;48149;51.132;7.178;2023-09-07T06:42:03;99114.94;;;44.26;22.58
62164;BME280;48149;51.132;7.178;2023-09-07T06:44:28;99112.38;;;42.26;24.48
62164;BME280;48149;51.132;7.178;2023-09-07T06:46:54;99110.78;;;43.55;23.41
62164;BME280;48149;51.132;7.178;2023-09-07T06:49:19;99119.22;;;45.15;22.01
62164;BME280;48149;51.132;7.178;2023-09-07T06:51:44;99116.44;;;44.30;23.35
62164;BME280;48149;51.132;7.178;2023-09-07T06:54:09;99115.53;;;41.49;24.89
62164;BME280;48149;51.132;7.178;2023-09-07T06:56:34;99121.09;;;43.51;23.42
62164;BME280;48149;51.132;7.178;2023-09-07T06:59:00;99120.75;;;44.67;22.57
62164;BME280;48149;51.132;7.178;2023-09-07T07:01:25;99120.38;;;43.47;23.76
62164;BME280;48149;51.132;7.178;2023-09-07T07:03:50;99125.28;;;44.02;23.11
62164;BME280;48149;51.132;7.178;2023-09-07T07:06:16;99120.75;;;43.92;23.03
62164;BME280;48149;51.132;7.178;2023-09-07T07:08:41;99121.47;;;43.96;23.30
62164;BME280;48149;51.132;7.178;2023-09-07T07:11:06;99130.84;;;43.09;23.87
62164;BME280;48149;51.132;7.178;2023-09-07T07:13:32;99123.38;;;43.99;22.85
62164;BME280;48149;51.132;7.178;2023-09-07T07:15:58;99125.28;;;45.42;22.18
62164;BME280;48149;51.132;7.178;2023-09-07T07:18:23;99127.84;;;45.49;22.13
62164;BME280;48149;51.132;7.178;2023-09-07T07:20:48;99134.97;;;45.34;22.35
62164;BME280;48149;51.132;7.178;2023-09-07T07:23:15;99129.56;;;44.62;22.96
62164;BME280;48149;51.132;7.178;2023-09-07T07:25:40;99133.19;;;43.11;24.26
62164;BME280;48149;51.132;7.178;2023-09-07T07:28:06;99124.59;;;45.83;22.16
62164;BME280;48149;51.132;7.178;2023-09-07T07:30:32;99127.69;;;45.40;22.27
62164;BME280;48149;51.132;7.178;2023-09-07T07:32:57;99133.47;;;43.86;23.65
62164;BME280;48149;51.132;7.178;2023-09-07T07:35:22;99138.59;;;46.04;21.98
62164;BME280;48149;51.132;7.178;2023-09-07T07:37:48;99137.69;;;44.69;22.72
62164;BME280;48149;51.132;7.178;2023-09-07T07:40:13;99137.50;;;42.85;24.56
62164;BME280;48149;51.132;7.178;2023-09-07T07:42:38;99136.41;;;43.75;23.70
62164;BME280;48149;51.132;7.178;2023-09-07T07:45:04;99132.16;;;46.24;21.64
62164;BME280;48149;51.132;7.178;2023-09-07T07:47:29;99139.13;;;42.82;24.01
62164;BME280;48149;51.132;7.178;2023-09-07T07:49:54;99139.00;;;43.63;23.72
62164;BME280;48149;51.132;7.178;2023-09-07T07:52:19;99132.34;;;43.60;24.00
62164;BME280;48149;51.132;7.178;2023-09-07T07:54:44;99127.63;;;43.84;24.10
62164;BME280;48149;51.132;7.178;2023-09-07T07:57:10;99136.16;;;41.24;26.19
62164;BME280;48149;51.132;7.178;2023-09-07T07:59:35;99133.78;;;44.31;23.29
62164;BME280;48149;51.132;7.178;2023-09-07T08:02:01;99139.59;;;45.21;22.82
62164;BME280;48149;51.132;7.178;2023-09-07T08:04:26;99128.53;;;44.72;23.81
62164;BME280;48149;51.132;7.178;2023-09-07T08:06:52;99137.47;;;45.89;22.21
62164;BME280;48149;51.132;7.178;2023-09-07T08:09:21;99130.00;;;43.82;23.94
62164;BME280;48149;51.132;7.178;2023-09-07T08:11:46;99124.81;;;43.64;25.11
62164;BME280;48149;51.132;7.178;2023-09-07T08:14:12;99139.31;;;42.68;25.13
62164;BME280;48149;51.132;7.178;2023-09-07T08:16:37;99126.78;;;42.33;24.99
62164;BME280;48149;51.132;7.178;2023-09-07T08:19:02;99124.25;;;44.16;23.82
62164;BME280;48149;51.132;7.178;2023-09-07T08:21:29;99129.16;;;45.12;23.54
62164;BME280;48149;51.132;7.178;2023-09-07T08:23:54;99122.53;;;45.09;22.90
62164;BME280;48149;51.132;7.178;2023-09-07T08:26:19;99129.59;;;44.78;23.66
62164;BME280;48149;51.132;7.178;2023-09-07T08:28:45;99120.81;;;44.64;23.82
62164;BME280;48149;51.132;7.178;2023-09-07T08:31:11;99118.28;;;45.05;23.40
62164;BME280;48149;51.132;7.178;2023-09-07T08:33:38;99123.84;;;44.14;24.23
62164;BME280;48149;51.132;7.178;2023-09-07T08:36:05;99121.75;;;45.99;23.12
62164;BME280;48149;51.132;7.178;2023-09-07T08:38:30;99114.94;;;45.75;23.13
62164;BME280;48149;51.132;7.178;2023-09-07T08:40:56;99117.50;;;47.37;21.86
62164;BME280;48149;51.132;7.178;2023-09-07T08:43:25;99119.50;;;44.52;24.01
62164;BME280;48149;51.132;7.178;2023-09-07T08:46:04;99120.94;;;44.60;23.77
62164;BME280;48149;51.132;7.178;2023-09-07T08:48:29;99112.00;;;45.66;23.05
62164;BME280;48149;51.132;7.178;2023-09-07T08:50:56;99126.53;;;43.31;25.52
62164;BME280;48149;51.132;7.178;2023-09-07T08:53:22;99120.78;;;44.47;24.27
62164;BME280;48149;51.132;7.178;2023-09-07T08:55:48;99124.09;;;43.37;24.76
62164;BME280;48149;51.132;7.178;2023-09-07T08:58:13;99114.75;;;43.31;25.15
62164;BME280;48149;51.132;7.178;2023-09-07T09:00:38;99115.56;;;44.14;24.60
62164;BME280;48149;51.132;7.178;2023-09-07T09:03:08;99119.69;;;43.43;24.70
62164;BME280;48149;51.132;7.178;2023-09-07T09:05:33;99126.66;;;44.49;25.19
62164;BME280;48149;51.132;7.178;2023-09-07T09:08:02;99112.66;;;46.27;23.10
62164;BME280;48149;51.132;7.178;2023-09-07T09:10:29;99115.75;;;46.29;23.29
62164;BME280;48149;51.132;7.178;2023-09-07T09:12:54;99118.06;;;46.18;23.83
62164;BME280;48149;51.132;7.178;2023-09-07T09:15:20;99124.19;;;46.38;22.62
62164;BME280;48149;51.132;7.178;2023-09-07T09:17:46;99125.56;;;48.52;21.13
62164;BME280;48149;51.132;7.178;2023-09-07T09:20:24;99124.41;;;45.29;23.67
62164;BME280;48149;51.132;7.178;2023-09-07T09:22:50;99126.75;;;49.86;20.30
62164;BME280;48149;51.132;7.178;2023-09-07T09:25:16;99135.66;;;51.72;18.53
62164;BME280;48149;51.132;7.178;2023-09-07T09:27:41;99125.13;;;52.55;18.58
62164;BME280;48149;51.132;7.178;2023-09-07T09:30:06;99140.03;;;54.65;17.17
62164;BME280;48149;51.132;7.178;2023-09-07T09:32:32;99128.00;;;56.05;16.26
62164;BME280;48149;51.132;7.178;2023-09-07T09:34:57;99124.47;;;54.69;17.46
62164;BME280;48149;51.132;7.178;2023-09-07T09:37:22;99117.41;;;52.99;17.40
62164;BME280;48149;51.132;7.178;2023-09-07T09:39:51;99120.81;;;52.68;18.54
62164;BME280;48149;51.132;7.178;2023-09-07T09:42:18;99114.25;;;51.31;18.98
62164;BME280;48149;51.132;7.178;2023-09-07T09:44:47;99109.56;;;54.52;16.94
62164;BME280;48149;51.132;7.178;2023-09-07T09:47:14;99109.44;;;52.92;18.03
62164;BME280;48149;51.132;7.178;2023-09-07T09:49:40;99105.91;;;54.09;17.44
62164;BME280;48149;51.132;7.178;2023-09-07T09:52:05;99100.44;;;53.23;18.17
62164;BME280;48149;51.132;7.178;2023-09-07T09:54:32;99114.91;;;56.85;16.21
62164;BME280;48149;51.132;7.178;2023-09-07T09:56:59;99108.63;;;55.03;17.30
62164;BME280;48149;51.132;7.178;2023-09-07T09:59:25;99106.56;;;56.52;16.24
62164;BME280;48149;51.132;7.178;2023-09-07T10:01:50;99099.19;;;60.87;13.90
62164;BME280;48149;51.132;7.178;2023-09-07T10:04:18;99100.44;;;56.31;15.77
62164;BME280;48149;51.132;7.178;2023-09-07T10:06:50;99099.25;;;59.34;14.20
62164;BME280;48149;51.132;7.178;2023-09-07T10:09:18;99095.81;;;55.78;16.88
62164;BME280;48149;51.132;7.178;2023-09-07T10:11:50;99092.78;;;55.00;16.86
62164;BME280;48149;51.132;7.178;2023-09-07T10:14:16;99092.75;;;54.15;17.71
62164;BME280;48149;51.132;7.178;2023-09-07T10:16:42;99082.31;;;52.14;18.50
62164;BME280;48149;51.132;7.178;2023-09-07T10:19:15;99084.75;;;53.77;17.74
62164;BME280;48149;51.132;7.178;2023-09-07T10:21:40;99092.19;;;55.44;16.66
62164;BME280;48149;51.132;7.178;2023-09-07T10:24:06;99082.94;;;57.81;15.38
62164;BME280;48149;51.132;7.178;2023-09-07T10:26:31;99083.81;;;57.18;15.38
62164;BME280;48149;51.132;7.178;2023-09-07T10:28:59;99086.31;;;57.33;15.90
62164;BME280;48149;51.132;7.178;2023-09-07T10:31:25;99095.34;;;59.55;14.63
62164;BME280;48149;51.132;7.178;2023-09-07T10:33:51;99091.00;;;58.74;14.57
62164;BME280;48149;51.132;7.178;2023-09-07T10:36:22;99091.31;;;57.92;15.14
62164;BME280;48149;51.132;7.178;2023-09-07T10:38:48;99093.28;;;60.98;14.18
62164;BME280;48149;51.132;7.178;2023-09-07T10:41:14;99087.94;;;57.17;15.74
62164;BME280;48149;51.132;7.178;2023-09-07T10:43:46;99082.75;;;55.64;16.34
62164;BME280;48149;51.132;7.178;2023-09-07T10:46:11;99077.41;;;55.71;15.90
62164;BME280;48149;51.132;7.178;2023-09-07T10:48:37;99065.50;;;55.06;17.34
62164;BME280;48149;51.132;7.178;2023-09-07T10:51:02;99063.69;;;57.03;15.45
62164;BME280;48149;51.132;7.178;2023-09-07T10:53:28;99065.00;;;57.78;15.12
62164;BME280;48149;51.132;7.178;2023-09-07T10:55:54;99062.84;;;55.51;16.20
62164;BME280;48149;51.132;7.178;2023-09-07T10:58:29;99056.22;;;53.07;17.22
62164;BME280;48149;51.132;7.178;2023-09-07T11:00:55;99061.31;;;55.61;16.03
62164;BME280;48149;51.132;7.178;2023-09-07T11:03:20;99072.31;;;60.41;13.89
62164;BME280;48149;51.132;7.178;2023-09-07T11:05:45;99061.19;;;58.60;15.36
62164;BME280;48149;51.132;7.178;2023-09-07T11:08:11;99064.38;;;60.66;13.53
62164;BME280;48149;51.132;7.178;2023-09-07T11:10:36;99059.72;;;60.55;14.01
62164;BME280;48149;51.132;7.178;2023-09-07T11:13:05;99056.50;;;60.72;13.98
62164;BME280;48149;51.132;7.178;2023-09-07T11:15:30;99052.25;;;58.56;14.12
62164;BME280;48149;51.132;7.178;2023-09-07T11:17:56;99053.66;;;59.43;14.63
62164;BME280;48149;51.132;7.178;2023-09-07T11:20:22;99056.09;;;58.28;14.40
62164;BME280;48149;51.132;7.178;2023-09-07T11:22:48;99052.88;;;57.54;14.76
62164;BME280;48149;51.132;7.178;2023-09-07T11:25:13;99053.84;;;59.32;15.05
62164;BME280;48149;51.132;7.178;2023-09-07T11:27:39;99055.88;;;60.53;14.14
62164;BME280;48149;51.132;7.178;2023-09-07T11:30:05;99060.63;;;61.10;13.80
62164;BME280;48149;51.132;7.178;2023-09-07T11:32:36;99056.34;;;63.51;13.08
62164;BME280;48149;51.132;7.178;2023-09-07T11:35:01;99055.28;;;61.61;13.89
62164;BME280;48149;51.132;7.178;2023-09-07T11:37:27;99056.72;;;60.87;13.93
62164;BME280;48149;51.132;7.178;2023-09-07T11:39:52;99058.03;;;63.39;13.52
62164;BME280;48149;51.132;7.178;2023-09-07T11:42:17;99045.66;;;63.21;12.33
62164;BME280;48149;51.132;7.178;2023-09-07T11:44:43;99041.47;;;61.99;13.02
62164;BME280;48149;51.132;7.178;2023-09-07T11:47:08;99037.91;;;59.66;14.23
62164;BME280;48149;51.132;7.178;2023-09-07T11:49:34;99037.19;;;59.47;14.18
62164;BME280;48149;51.132;7.178;2023-09-07T11:51:59;99037.53;;;62.66;12.77
62164;BME280;48149;51.132;7.178;2023-09-07T11:54:24;99025.19;;;60.04;13.46
62164;BME280;48149;51.132;7.178;2023-09-07T11:56:49;99035.84;;;59.98;14.03
62164;BME280;48149;51.132;7.178;2023-09-07T11:59:15;99024.09;;;60.60;14.21
62164;BME280;48149;51.132;7.178;2023-09-07T12:01:42;99034.31;;;60.63;12.88
62164;BME280;48149;51.132;7.178;2023-09-07T12:04:07;99024.78;;;60.40;13.24
62164;BME280;48149;51.132;7.178;2023-09-07T12:06:33;99027.09;;;63.12;12.11
62164;BME280;48149;51.132;7.178;2023-09-07T12:09:02;99021.72;;;59.66;13.63
62164;BME280;48149;51.132;7.178;2023-09-07T12:11:28;99018.56;;;57.55;14.87
62164;BME280;48149;51.132;7.178;2023-09-07T12:13:53;99020.19;;;61.64;13.00
62164;BME280;48149;51.132;7.178;2023-09-07T12:16:18;99036.28;;;64.02;11.52
62164;BME280;48149;51.132;7.178;2023-09-07T12:18:43;99025.09;;;63.36;12.67
62164;BME280;48149;51.132;7.178;2023-09-07T12:21:09;99037.53;;;64.86;11.68
62164;BME280;48149;51.132;7.178;2023-09-07T12:23:34;99016.59;;;59.65;12.94
62164;BME280;48149;51.132;7.178;2023-09-07T12:26:00;99009.69;;;59.79;13.09
62164;BME280;48149;51.132;7.178;2023-09-07T12:28:25;99004.00;;;58.11;14.11
62164;BME280;48149;51.132;7.178;2023-09-07T12:30:51;99009.09;;;56.60;14.92
62164;BME280;48149;51.132;7.178;2023-09-07T12:33:16;99008.34;;;60.25;13.09
62164;BME280;48149;51.132;7.178;2023-09-07T12:35:41;98997.81;;;58.61;14.32
62164;BME280;48149;51.132;7.178;2023-09-07T12:38:06;99004.22;;;60.52;12.49
62164;BME280;48149;51.132;7.178;2023-09-07T12:40:32;99005.22;;;60.89;12.84
62164;BME280;48149;51.132;7.178;2023-09-07T12:42:57;99014.13;;;65.27;11.38
62164;BME280;48149;51.132;7.178;2023-09-07T12:45:22;98990.84;;;57.30;14.16
62164;BME280;48149;51.132;7.178;2023-09-07T12:47:48;98988.09;;;61.28;13.02
62164;BME280;48149;51.132;7.178;2023-09-07T12:50:13;98996.16;;;62.86;12.55
62164;BME280;48149;51.132;7.178;2023-09-07T12:52:38;98987.34;;;59.31;13.30
62164;BME280;48149;51.132;7.178;2023-09-07T12:55:07;98981.56;;;60.00;13.66